Machagai, Argentina
Current Conditions -  °F | °C
As of 5:00 PM on Monday 26 Jan 2015 (Local Time) from SARE Reporting Station
Scattered Clouds Scattered Clouds  
Wind Chill: 36°   Ceiling: Unl
Heat Index: 39°   Visibility: 6mi
Dew Point: 20°   Wind: 5mph
Humidity: 39%   Direction: 20°NNE
Pressure: 29.74"   Gusts: NA
Location:  26.93°S, 60.05°W
Report Text: SARE 262000Z 02004KT 9999 FEW020 SCT200 36/20 Q1007
Loading
Personal Weather Stations






























Interactive Weather Map New forecast layout! Learn more

10-Day Weather Forecast

Advertisements
Track Severe Weather on mobile